sensor_id;sensor_type;location;lat;lon;timestamp;pressure;altitude;pressure_sealevel;temperature
73894;BMP280;62699;50.534;12.784;2024-01-30T00:01:21;97664.28;;;-0.93
73894;BMP280;62699;50.534;12.784;2024-01-30T00:06:21;97668.44;;;-0.89
73894;BMP280;62699;50.534;12.784;2024-01-30T00:11:22;97660.88;;;-1.04
73894;BMP280;62699;50.534;12.784;2024-01-30T00:16:25;97665.03;;;-1.03
73894;BMP280;62699;50.534;12.784;2024-01-30T00:21:25;97662.75;;;-1.08
73894;BMP280;62699;50.534;12.784;2024-01-30T00:26:26;97661.25;;;-1.13
73894;BMP280;62699;50.534;12.784;2024-01-30T00:31:26;97657.84;;;-1.17
73894;BMP280;62699;50.534;12.784;2024-01-30T00:36:26;97662.38;;;-1.18
73894;BMP280;62699;50.534;12.784;2024-01-30T00:41:29;97658.59;;;-1.17
73894;BMP280;62699;50.534;12.784;2024-01-30T00:46:30;97655.94;;;-1.20
73894;BMP280;62699;50.534;12.784;2024-01-30T00:51:30;97652.56;;;-1.21
73894;BMP280;62699;50.534;12.784;2024-01-30T00:56:30;97660.88;;;-1.26
73894;BMP280;62699;50.534;12.784;2024-01-30T01:01:31;97657.84;;;-1.17
73894;BMP280;62699;50.534;12.784;2024-01-30T01:06:31;97654.84;;;-1.16
73894;BMP280;62699;50.534;12.784;2024-01-30T01:11:32;97654.84;;;-1.08
73894;BMP280;62699;50.534;12.784;2024-01-30T01:16:33;97657.47;;;-1.08
73894;BMP280;62699;50.534;12.784;2024-01-30T01:21:33;97659.38;;;-1.05
73894;BMP280;62699;50.534;12.784;2024-01-30T01:26:34;97654.84;;;-1.01
73894;BMP280;62699;50.534;12.784;2024-01-30T01:31:34;97657.09;;;-1.07
73894;BMP280;62699;50.534;12.784;2024-01-30T01:36:34;97647.28;;;-1.06
73894;BMP280;62699;50.534;12.784;2024-01-30T01:41:34;97649.94;;;-1.06
73894;BMP280;62699;50.534;12.784;2024-01-30T01:46:35;97643.53;;;-1.13
73894;BMP280;62699;50.534;12.784;2024-01-30T01:51:36;97634.44;;;-1.12
73894;BMP280;62699;50.534;12.784;2024-01-30T01:56:36;97642.00;;;-1.10
73894;BMP280;62699;50.534;12.784;2024-01-30T02:01:39;97634.44;;;-1.08
73894;BMP280;62699;50.534;12.784;2024-01-30T02:06:43;97638.97;;;-1.08
73894;BMP280;62699;50.534;12.784;2024-01-30T02:11:43;97635.94;;;-1.11
73894;BMP280;62699;50.534;12.784;2024-01-30T02:16:43;97633.69;;;-1.08
73894;BMP280;62699;50.534;12.784;2024-01-30T02:21:45;97636.34;;;-1.16
73894;BMP280;62699;50.534;12.784;2024-01-30T02:26:45;97635.59;;;-1.13
73894;BMP280;62699;50.534;12.784;2024-01-30T02:31:46;97640.09;;;-1.10
73894;BMP280;62699;50.534;12.784;2024-01-30T02:36:46;97632.19;;;-1.10
73894;BMP280;62699;50.534;12.784;2024-01-30T02:41:46;97633.69;;;-1.01
73894;BMP280;62699;50.534;12.784;2024-01-30T02:46:46;97626.91;;;-1.02
73894;BMP280;62699;50.534;12.784;2024-01-30T02:51:47;97625.03;;;-1.05
73894;BMP280;62699;50.534;12.784;2024-01-30T02:56:47;97630.69;;;-1.03
73894;BMP280;62699;50.534;12.784;2024-01-30T03:01:48;97617.09;;;-0.98
73894;BMP280;62699;50.534;12.784;2024-01-30T03:06:48;97608.03;;;-0.97
73894;BMP280;62699;50.534;12.784;2024-01-30T03:11:49;97615.59;;;-0.92
73894;BMP280;62699;50.534;12.784;2024-01-30T03:16:49;97607.63;;;-0.99
73894;BMP280;62699;50.534;12.784;2024-01-30T03:21:50;97613.31;;;-1.04
73894;BMP280;62699;50.534;12.784;2024-01-30T03:26:50;97603.09;;;-1.10
73894;BMP280;62699;50.534;12.784;2024-01-30T03:31:50;97606.88;;;-1.18
73894;BMP280;62699;50.534;12.784;2024-01-30T03:36:51;97614.06;;;-1.22
73894;BMP280;62699;50.534;12.784;2024-01-30T03:41:51;97600.09;;;-1.29
73894;BMP280;62699;50.534;12.784;2024-01-30T03:46:51;97605.75;;;-1.31
73894;BMP280;62699;50.534;12.784;2024-01-30T03:51:51;97607.22;;;-1.37
73894;BMP280;62699;50.534;12.784;2024-01-30T03:56:52;97601.94;;;-1.44
73894;BMP280;62699;50.534;12.784;2024-01-30T04:01:52;97598.53;;;-1.48
73894;BMP280;62699;50.534;12.784;2024-01-30T04:06:52;97597.41;;;-1.54
73894;BMP280;62699;50.534;12.784;2024-01-30T04:11:52;97600.41;;;-1.56
73894;BMP280;62699;50.534;12.784;2024-01-30T04:16:53;97607.19;;;-1.58
73894;BMP280;62699;50.534;12.784;2024-01-30T04:21:53;97606.06;;;-1.64
73894;BMP280;62699;50.534;12.784;2024-01-30T04:26:53;97595.84;;;-1.69
73894;BMP280;62699;50.534;12.784;2024-01-30T04:31:53;97604.91;;;-1.74
73894;BMP280;62699;50.534;12.784;2024-01-30T04:36:54;97588.66;;;-1.79
73894;BMP280;62699;50.534;12.784;2024-01-30T04:41:54;97581.88;;;-1.80
73894;BMP280;62699;50.534;12.784;2024-01-30T04:46:54;97581.13;;;-1.85
73894;BMP280;62699;50.534;12.784;2024-01-30T04:51:59;97580.31;;;-1.89
73894;BMP280;62699;50.534;12.784;2024-01-30T04:56:59;97575.44;;;-1.94
73894;BMP280;62699;50.534;12.784;2024-01-30T05:01:59;97581.44;;;-1.97
73894;BMP280;62699;50.534;12.784;2024-01-30T05:06:59;97580.28;;;-1.99
73894;BMP280;62699;50.534;12.784;2024-01-30T05:12:00;97580.66;;;-2.01
73894;BMP280;62699;50.534;12.784;2024-01-30T05:17:00;97577.25;;;-2.01
73894;BMP280;62699;50.534;12.784;2024-01-30T05:22:00;97586.72;;;-2.04
73894;BMP280;62699;50.534;12.784;2024-01-30T05:27:01;97581.44;;;-2.04
73894;BMP280;62699;50.534;12.784;2024-01-30T05:32:02;97587.41;;;-2.10
73894;BMP280;62699;50.534;12.784;2024-01-30T05:37:02;97582.88;;;-2.13
73894;BMP280;62699;50.534;12.784;2024-01-30T05:42:03;97583.66;;;-2.09
73894;BMP280;62699;50.534;12.784;2024-01-30T05:47:03;97588.19;;;-2.10
73894;BMP280;62699;50.534;12.784;2024-01-30T05:52:04;97588.53;;;-2.11
73894;BMP280;62699;50.534;12.784;2024-01-30T05:57:04;97585.91;;;-2.11
73894;BMP280;62699;50.534;12.784;2024-01-30T06:02:04;97571.59;;;-2.14
73894;BMP280;62699;50.534;12.784;2024-01-30T06:07:05;97574.59;;;-2.12
73894;BMP280;62699;50.534;12.784;2024-01-30T06:12:06;97569.72;;;-2.10
73894;BMP280;62699;50.534;12.784;2024-01-30T06:17:06;97572.31;;;-2.13
73894;BMP280;62699;50.534;12.784;2024-01-30T06:22:07;97572.34;;;-2.17
73894;BMP280;62699;50.534;12.784;2024-01-30T06:27:07;97573.81;;;-2.20
73894;BMP280;62699;50.534;12.784;2024-01-30T06:32:07;97573.06;;;-2.20
73894;BMP280;62699;50.534;12.784;2024-01-30T06:37:08;97567.81;;;-2.16
73894;BMP280;62699;50.534;12.784;2024-01-30T06:42:08;97553.09;;;-2.17
73894;BMP280;62699;50.534;12.784;2024-01-30T06:47:08;97568.19;;;-2.14
73894;BMP280;62699;50.534;12.784;2024-01-30T06:52:09;97568.59;;;-2.09
73894;BMP280;62699;50.534;12.784;2024-01-30T06:57:09;97557.31;;;-1.99
73894;BMP280;62699;50.534;12.784;2024-01-30T07:02:12;97567.94;;;-1.85
73894;BMP280;62699;50.534;12.784;2024-01-30T07:07:12;97569.44;;;-1.73
73894;BMP280;62699;50.534;12.784;2024-01-30T07:12:13;97562.69;;;-1.56
73894;BMP280;62699;50.534;12.784;2024-01-30T07:17:13;97554.03;;;-1.35
73894;BMP280;62699;50.534;12.784;2024-01-30T07:22:14;97561.97;;;-1.25
73894;BMP280;62699;50.534;12.784;2024-01-30T07:27:14;97567.63;;;-1.08
73894;BMP280;62699;50.534;12.784;2024-01-30T07:32:15;97567.63;;;-0.94
73894;BMP280;62699;50.534;12.784;2024-01-30T07:37:15;97557.38;;;-0.78
73894;BMP280;62699;50.534;12.784;2024-01-30T07:42:16;97561.13;;;-0.58
73894;BMP280;62699;50.534;12.784;2024-01-30T07:47:17;97567.88;;;-0.32
73894;BMP280;62699;50.534;12.784;2024-01-30T07:52:17;97569.16;;;0.15
73894;BMP280;62699;50.534;12.784;2024-01-30T07:57:18;97581.97;;;2.65
73894;BMP280;62699;50.534;12.784;2024-01-30T08:02:18;97578.66;;;4.68
73894;BMP280;62699;50.534;12.784;2024-01-30T08:07:18;97586.22;;;5.14
73894;BMP280;62699;50.534;12.784;2024-01-30T08:12:19;97595.78;;;6.80
73894;BMP280;62699;50.534;12.784;2024-01-30T08:17:20;97606.22;;;6.87
73894;BMP280;62699;50.534;12.784;2024-01-30T08:22:20;97607.50;;;7.38
73894;BMP280;62699;50.534;12.784;2024-01-30T08:27:20;97605.44;;;7.42
73894;BMP280;62699;50.534;12.784;2024-01-30T08:32:20;97608.00;;;8.17
73894;BMP280;62699;50.534;12.784;2024-01-30T08:37:21;97602.59;;;7.15
73894;BMP280;62699;50.534;12.784;2024-01-30T08:42:21;97597.34;;;6.55
73894;BMP280;62699;50.534;12.784;2024-01-30T08:47:25;97596.19;;;5.80
73894;BMP280;62699;50.534;12.784;2024-01-30T08:52:25;97586.78;;;5.76
73894;BMP280;62699;50.534;12.784;2024-01-30T08:57:25;97586.44;;;5.61
73894;BMP280;62699;50.534;12.784;2024-01-30T09:02:28;97589.06;;;5.36
73894;BMP280;62699;50.534;12.784;2024-01-30T09:07:29;97588.63;;;5.25
73894;BMP280;62699;50.534;12.784;2024-01-30T09:12:29;97587.25;;;5.87
73894;BMP280;62699;50.534;12.784;2024-01-30T09:17:29;97581.72;;;6.41
73894;BMP280;62699;50.534;12.784;2024-01-30T09:22:30;97590.81;;;6.91
73894;BMP280;62699;50.534;12.784;2024-01-30T09:27:31;97581.81;;;7.50
73894;BMP280;62699;50.534;12.784;2024-01-30T09:32:31;97582.78;;;8.14
73894;BMP280;62699;50.534;12.784;2024-01-30T09:37:32;97583.19;;;8.71
73894;BMP280;62699;50.534;12.784;2024-01-30T09:42:34;97582.13;;;9.14
73894;BMP280;62699;50.534;12.784;2024-01-30T09:47:45;97591.19;;;9.35
73894;BMP280;62699;50.534;12.784;2024-01-30T09:52:47;97586.97;;;9.43
73894;BMP280;62699;50.534;12.784;2024-01-30T09:57:47;97576.75;;;9.56
73894;BMP280;62699;50.534;12.784;2024-01-30T10:02:47;97568.19;;;9.66
73894;BMP280;62699;50.534;12.784;2024-01-30T10:07:54;97572.28;;;9.62
73894;BMP280;62699;50.534;12.784;2024-01-30T10:12:55;97564.13;;;9.80
73894;BMP280;62699;50.534;12.784;2024-01-30T10:17:55;97559.59;;;9.86
73894;BMP280;62699;50.534;12.784;2024-01-30T10:22:56;97562.41;;;9.92
73894;BMP280;62699;50.534;12.784;2024-01-30T10:27:56;97547.94;;;9.89
73894;BMP280;62699;50.534;12.784;2024-01-30T10:32:57;97560.41;;;10.01
73894;BMP280;62699;50.534;12.784;2024-01-30T10:37:58;97550.84;;;10.00
73894;BMP280;62699;50.534;12.784;2024-01-30T10:43:01;97543.59;;;10.16
73894;BMP280;62699;50.534;12.784;2024-01-30T10:48:03;97534.72;;;10.24
73894;BMP280;62699;50.534;12.784;2024-01-30T10:53:05;97532.88;;;10.30
73894;BMP280;62699;50.534;12.784;2024-01-30T10:58:06;97537.13;;;10.22
73894;BMP280;62699;50.534;12.784;2024-01-30T11:03:07;97511.84;;;10.20
73894;BMP280;62699;50.534;12.784;2024-01-30T11:08:14;97511.44;;;10.36
73894;BMP280;62699;50.534;12.784;2024-01-30T11:13:15;97517.31;;;10.49
73894;BMP280;62699;50.534;12.784;2024-01-30T11:18:23;97515.66;;;10.66
73894;BMP280;62699;50.534;12.784;2024-01-30T11:23:25;97511.03;;;10.81
73894;BMP280;62699;50.534;12.784;2024-01-30T11:28:33;97513.09;;;10.86
73894;BMP280;62699;50.534;12.784;2024-01-30T11:33:34;97506.91;;;11.00
73894;BMP280;62699;50.534;12.784;2024-01-30T11:38:34;97517.16;;;11.11
73894;BMP280;62699;50.534;12.784;2024-01-30T11:43:35;97510.47;;;11.07
73894;BMP280;62699;50.534;12.784;2024-01-30T11:48:35;97503.75;;;11.17
73894;BMP280;62699;50.534;12.784;2024-01-30T11:53:35;97504.50;;;11.17
73894;BMP280;62699;50.534;12.784;2024-01-30T11:58:36;97505.78;;;11.22
73894;BMP280;62699;50.534;12.784;2024-01-30T12:03:36;97501.72;;;11.26
73894;BMP280;62699;50.534;12.784;2024-01-30T12:08:36;97499.00;;;11.26
73894;BMP280;62699;50.534;12.784;2024-01-30T12:13:37;97493.25;;;11.19
73894;BMP280;62699;50.534;12.784;2024-01-30T12:18:37;97489.19;;;11.29
73894;BMP280;62699;50.534;12.784;2024-01-30T12:23:37;97478.78;;;11.36
73894;BMP280;62699;50.534;12.784;2024-01-30T12:28:47;97473.19;;;11.40
73894;BMP280;62699;50.534;12.784;2024-01-30T12:33:49;97478.59;;;11.40
73894;BMP280;62699;50.534;12.784;2024-01-30T12:38:50;97478.47;;;11.49
73894;BMP280;62699;50.534;12.784;2024-01-30T12:43:50;97474.19;;;11.57
73894;BMP280;62699;50.534;12.784;2024-01-30T12:48:50;97468.22;;;11.53
73894;BMP280;62699;50.534;12.784;2024-01-30T12:53:51;97469.25;;;11.56
73894;BMP280;62699;50.534;12.784;2024-01-30T12:58:51;97472.59;;;11.65
73894;BMP280;62699;50.534;12.784;2024-01-30T13:03:52;97477.03;;;11.68
73894;BMP280;62699;50.534;12.784;2024-01-30T13:08:52;97472.09;;;11.67
73894;BMP280;62699;50.534;12.784;2024-01-30T13:13:52;97462.31;;;11.69
73894;BMP280;62699;50.534;12.784;2024-01-30T13:18:53;97465.50;;;11.68
73894;BMP280;62699;50.534;12.784;2024-01-30T13:23:58;97465.81;;;11.75
73894;BMP280;62699;50.534;12.784;2024-01-30T13:28:58;97457.06;;;11.80
73894;BMP280;62699;50.534;12.784;2024-01-30T13:33:59;97448.72;;;11.78
73894;BMP280;62699;50.534;12.784;2024-01-30T13:38:59;97455.81;;;11.81
73894;BMP280;62699;50.534;12.784;2024-01-30T13:43:59;97446.81;;;11.84
73894;BMP280;62699;50.534;12.784;2024-01-30T13:48:59;97449.03;;;11.86
73894;BMP280;62699;50.534;12.784;2024-01-30T13:54:00;97454.09;;;11.78
73894;BMP280;62699;50.534;12.784;2024-01-30T13:59:00;97458.41;;;11.70
73894;BMP280;62699;50.534;12.784;2024-01-30T14:04:05;97457.31;;;11.62
73894;BMP280;62699;50.534;12.784;2024-01-30T14:09:05;97457.72;;;11.55
73894;BMP280;62699;50.534;12.784;2024-01-30T14:14:05;97451.63;;;11.40
73894;BMP280;62699;50.534;12.784;2024-01-30T14:19:06;97462.25;;;11.29
73894;BMP280;62699;50.534;12.784;2024-01-30T14:24:06;97452.78;;;11.33
73894;BMP280;62699;50.534;12.784;2024-01-30T14:29:06;97454.66;;;11.27
73894;BMP280;62699;50.534;12.784;2024-01-30T14:34:07;97457.38;;;11.13
73894;BMP280;62699;50.534;12.784;2024-01-30T14:39:08;97465.47;;;11.13
73894;BMP280;62699;50.534;12.784;2024-01-30T14:44:09;97459.34;;;11.12
73894;BMP280;62699;50.534;12.784;2024-01-30T14:49:10;97461.56;;;10.99
73894;BMP280;62699;50.534;12.784;2024-01-30T14:54:10;97456.88;;;10.79
73894;BMP280;62699;50.534;12.784;2024-01-30T14:59:11;97458.16;;;10.69
73894;BMP280;62699;50.534;12.784;2024-01-30T15:04:11;97454.16;;;10.50
73894;BMP280;62699;50.534;12.784;2024-01-30T15:09:12;97463.25;;;10.38
73894;BMP280;62699;50.534;12.784;2024-01-30T15:14:15;97463.63;;;10.16
73894;BMP280;62699;50.534;12.784;2024-01-30T15:19:15;97468.44;;;9.88
73894;BMP280;62699;50.534;12.784;2024-01-30T15:24:15;97472.47;;;9.60
73894;BMP280;62699;50.534;12.784;2024-01-30T15:29:18;97470.50;;;9.37
73894;BMP280;62699;50.534;12.784;2024-01-30T15:34:21;97473.28;;;9.09
73894;BMP280;62699;50.534;12.784;2024-01-30T15:39:21;97476.81;;;8.83
73894;BMP280;62699;50.534;12.784;2024-01-30T15:44:21;97491.91;;;8.53
73894;BMP280;62699;50.534;12.784;2024-01-30T15:49:22;97494.59;;;8.25
73894;BMP280;62699;50.534;12.784;2024-01-30T15:54:22;97497.38;;;7.94
73894;BMP280;62699;50.534;12.784;2024-01-30T15:59:22;97496.13;;;7.68
73894;BMP280;62699;50.534;12.784;2024-01-30T16:04:23;97491.56;;;7.47
73894;BMP280;62699;50.534;12.784;2024-01-30T16:09:25;97503.84;;;7.26
73894;BMP280;62699;50.534;12.784;2024-01-30T16:14:25;97506.13;;;7.06
73894;BMP280;62699;50.534;12.784;2024-01-30T16:19:25;97506.75;;;6.88
73894;BMP280;62699;50.534;12.784;2024-01-30T16:24:25;97505.88;;;6.70
73894;BMP280;62699;50.534;12.784;2024-01-30T16:29:26;97509.34;;;6.57
73894;BMP280;62699;50.534;12.784;2024-01-30T16:34:27;97506.81;;;6.41
73894;BMP280;62699;50.534;12.784;2024-01-30T16:39:27;97514.16;;;6.28
73894;BMP280;62699;50.534;12.784;2024-01-30T16:44:28;97510.84;;;6.11
73894;BMP280;62699;50.534;12.784;2024-01-30T16:49:28;97512.69;;;6.02
73894;BMP280;62699;50.534;12.784;2024-01-30T16:54:28;97516.31;;;6.08
73894;BMP280;62699;50.534;12.784;2024-01-30T16:59:28;97519.09;;;5.92
73894;BMP280;62699;50.534;12.784;2024-01-30T17:04:29;97519.50;;;6.03
73894;BMP280;62699;50.534;12.784;2024-01-30T17:09:29;97518.66;;;6.18
73894;BMP280;62699;50.534;12.784;2024-01-30T17:14:30;97535.47;;;6.53
73894;BMP280;62699;50.534;12.784;2024-01-30T17:19:30;97524.41;;;7.07
73894;BMP280;62699;50.534;12.784;2024-01-30T17:24:30;97523.09;;;7.12
73894;BMP280;62699;50.534;12.784;2024-01-30T17:29:31;97534.09;;;7.05
73894;BMP280;62699;50.534;12.784;2024-01-30T17:34:31;97524.78;;;6.97
73894;BMP280;62699;50.534;12.784;2024-01-30T17:39:31;97519.19;;;6.82
73894;BMP280;62699;50.534;12.784;2024-01-30T17:44:35;97524.41;;;6.86
73894;BMP280;62699;50.534;12.784;2024-01-30T17:49:40;97524.31;;;6.68
73894;BMP280;62699;50.534;12.784;2024-01-30T17:54:40;97525.75;;;6.47
73894;BMP280;62699;50.534;12.784;2024-01-30T17:59:42;97522.47;;;6.30
73894;BMP280;62699;50.534;12.784;2024-01-30T18:04:42;97528.94;;;6.20
73894;BMP280;62699;50.534;12.784;2024-01-30T18:09:42;97533.81;;;6.21
73894;BMP280;62699;50.534;12.784;2024-01-30T18:14:42;97537.25;;;6.22
73894;BMP280;62699;50.534;12.784;2024-01-30T18:19:44;97542.44;;;6.51
73894;BMP280;62699;50.534;12.784;2024-01-30T18:24:44;97547.75;;;6.63
73894;BMP280;62699;50.534;12.784;2024-01-30T18:29:45;97555.31;;;6.78
73894;BMP280;62699;50.534;12.784;2024-01-30T18:34:45;97559.22;;;6.86
73894;BMP280;62699;50.534;12.784;2024-01-30T18:39:45;97574.09;;;6.87
73894;BMP280;62699;50.534;12.784;2024-01-30T18:44:46;97573.31;;;6.99
73894;BMP280;62699;50.534;12.784;2024-01-30T18:49:46;97571.75;;;7.11
73894;BMP280;62699;50.534;12.784;2024-01-30T18:54:51;97561.91;;;7.07
73894;BMP280;62699;50.534;12.784;2024-01-30T18:59:52;97559.16;;;7.20
73894;BMP280;62699;50.534;12.784;2024-01-30T19:04:52;97567.75;;;7.15
73894;BMP280;62699;50.534;12.784;2024-01-30T19:09:52;97571.16;;;7.06
73894;BMP280;62699;50.534;12.784;2024-01-30T19:14:53;97579.97;;;7.16
73894;BMP280;62699;50.534;12.784;2024-01-30T19:19:53;97581.97;;;7.25
73894;BMP280;62699;50.534;12.784;2024-01-30T19:24:53;97592.44;;;7.32
73894;BMP280;62699;50.534;12.784;2024-01-30T19:29:54;97588.00;;;7.38
73894;BMP280;62699;50.534;12.784;2024-01-30T19:34:55;97587.06;;;7.32
73894;BMP280;62699;50.534;12.784;2024-01-30T19:39:55;97598.16;;;6.99
73894;BMP280;62699;50.534;12.784;2024-01-30T19:44:56;97601.53;;;6.91
73894;BMP280;62699;50.534;12.784;2024-01-30T19:49:56;97583.75;;;6.84
73894;BMP280;62699;50.534;12.784;2024-01-30T19:54:56;97588.59;;;6.77
73894;BMP280;62699;50.534;12.784;2024-01-30T19:59:57;97590.91;;;6.87
73894;BMP280;62699;50.534;12.784;2024-01-30T20:04:57;97600.50;;;6.97
73894;BMP280;62699;50.534;12.784;2024-01-30T20:09:57;97611.91;;;6.89
73894;BMP280;62699;50.534;12.784;2024-01-30T20:14:57;97618.44;;;6.88
73894;BMP280;62699;50.534;12.784;2024-01-30T20:19:58;97617.09;;;7.05
73894;BMP280;62699;50.534;12.784;2024-01-30T20:25:03;97621.94;;;7.19
73894;BMP280;62699;50.534;12.784;2024-01-30T20:30:04;97617.84;;;7.27
73894;BMP280;62699;50.534;12.784;2024-01-30T20:35:05;97628.56;;;7.27
73894;BMP280;62699;50.534;12.784;2024-01-30T20:40:07;97621.56;;;7.08
73894;BMP280;62699;50.534;12.784;2024-01-30T20:45:08;97616.38;;;6.92
73894;BMP280;62699;50.534;12.784;2024-01-30T20:50:11;97625.53;;;6.82
73894;BMP280;62699;50.534;12.784;2024-01-30T20:55:12;97628.16;;;6.60
73894;BMP280;62699;50.534;12.784;2024-01-30T21:00:13;97625.41;;;6.38
73894;BMP280;62699;50.534;12.784;2024-01-30T21:05:14;97631.69;;;6.32
73894;BMP280;62699;50.534;12.784;2024-01-30T21:10:15;97627.00;;;6.10
73894;BMP280;62699;50.534;12.784;2024-01-30T21:15:15;97625.09;;;5.98
73894;BMP280;62699;50.534;12.784;2024-01-30T21:20:15;97624.41;;;5.81
73894;BMP280;62699;50.534;12.784;2024-01-30T21:25:16;97624.50;;;5.65
73894;BMP280;62699;50.534;12.784;2024-01-30T21:30:16;97642.09;;;5.50
73894;BMP280;62699;50.534;12.784;2024-01-30T21:35:16;97634.38;;;5.39
73894;BMP280;62699;50.534;12.784;2024-01-30T21:40:17;97631.38;;;5.37
73894;BMP280;62699;50.534;12.784;2024-01-30T21:45:18;97630.16;;;5.26
73894;BMP280;62699;50.534;12.784;2024-01-30T21:50:20;97638.44;;;5.15
73894;BMP280;62699;50.534;12.784;2024-01-30T21:55:20;97644.41;;;5.07
73894;BMP280;62699;50.534;12.784;2024-01-30T22:00:21;97646.91;;;4.97
73894;BMP280;62699;50.534;12.784;2024-01-30T22:05:21;97649.41;;;4.88
73894;BMP280;62699;50.534;12.784;2024-01-30T22:10:21;97649.75;;;4.74
73894;BMP280;62699;50.534;12.784;2024-01-30T22:15:21;97646.59;;;4.63
73894;BMP280;62699;50.534;12.784;2024-01-30T22:20:22;97653.16;;;4.58
73894;BMP280;62699;50.534;12.784;2024-01-30T22:25:22;97650.06;;;4.44
73894;BMP280;62699;50.534;12.784;2024-01-30T22:30:22;97665.03;;;4.38
73894;BMP280;62699;50.534;12.784;2024-01-30T22:35:22;97658.03;;;4.28
73894;BMP280;62699;50.534;12.784;2024-01-30T22:40:23;97666.94;;;4.21
73894;BMP280;62699;50.534;12.784;2024-01-30T22:45:23;97665.22;;;4.14
73894;BMP280;62699;50.534;12.784;2024-01-30T22:50:23;97660.34;;;4.09
73894;BMP280;62699;50.534;12.784;2024-01-30T22:55:23;97675.25;;;4.07
73894;BMP280;62699;50.534;12.784;2024-01-30T23:00:24;97665.31;;;4.07
73894;BMP280;62699;50.534;12.784;2024-01-30T23:05:28;97661.84;;;4.10
73894;BMP280;62699;50.534;12.784;2024-01-30T23:10:30;97661.78;;;4.14
73894;BMP280;62699;50.534;12.784;2024-01-30T23:15:30;97676.94;;;4.17
73894;BMP280;62699;50.534;12.784;2024-01-30T23:20:30;97682.53;;;4.22
73894;BMP280;62699;50.534;12.784;2024-01-30T23:25:31;97682.88;;;4.25
73894;BMP280;62699;50.534;12.784;2024-01-30T23:30:31;97673.72;;;4.58
73894;BMP280;62699;50.534;12.784;2024-01-30T23:35:31;97668.25;;;4.65
73894;BMP280;62699;50.534;12.784;2024-01-30T23:40:31;97676.69;;;4.63
73894;BMP280;62699;50.534;12.784;2024-01-30T23:45:32;97669.16;;;4.58
73894;BMP280;62699;50.534;12.784;2024-01-30T23:50:32;97670.75;;;4.56
73894;BMP280;62699;50.534;12.784;2024-01-30T23:55:32;97679.94;;;4.55
